Noble, Ohio
Current Conditions -  °F | °C
As of 5:45 PM on Monday 24 Nov 2014 (Local Time) from KCGF Reporting Station
Overcast Overcast  
Wind Chill:   Ceiling: 3500
Heat Index:   Visibility: 10mi
Dew Point:   Wind: 17mph
Humidity: 66%   Direction: 260°W
Pressure: 29.6"   Gusts: 29mph
Location:  41.6046°N, 81.5°W
Report Text: KCGF 242245Z 26015G25KT 10SM OVC035 09/03 A2960
Loading
Personal Weather Stations






























Interactive Weather Map New forecast layout! Learn more

10-Day Weather Forecast

Advertisements
Track Severe Weather on mobile